METAR Data
IDs: Format: Raw Decoded Include TAF

Data at: 0809 UTC 01 Aug 2021

LFPV 010800Z AUTO 26006KT 220V290 9999 FEW017 BKN024 BKN030 16/12 Q1013